createdAt,value
2019-05-25T00:03:36.558Z,95765.06
2019-05-25T00:06:20.110Z,95787.53
2019-05-25T00:09:09.883Z,95783.08
2019-05-25T00:12:00.042Z,95768.75
2019-05-25T00:15:08.919Z,95779.07
2019-05-25T00:17:58.908Z,95775.60
2019-05-25T00:20:48.659Z,95770.50
2019-05-25T00:23:38.385Z,95775.04
2019-05-25T00:26:20.769Z,95769.61
2019-05-25T00:29:10.566Z,95772.11
2019-05-25T00:32:15.974Z,95770.50
2019-05-25T00:34:58.696Z,95772.81
2019-05-25T00:37:48.443Z,95765.37
2019-05-25T00:40:30.856Z,95766.92
2019-05-25T00:43:20.594Z,95769.85
2019-05-25T00:49:06.075Z,95773.48
2019-05-25T00:51:36.758Z,95769.91
2019-05-25T00:54:28.191Z,95770.93
2019-05-25T00:57:10.943Z,95761.73
2019-05-25T01:00:00.733Z,95757.03
2019-05-25T01:02:50.545Z,95735.89
2019-05-25T01:05:40.337Z,95753.00
2019-05-25T01:08:22.983Z,95762.41
2019-05-25T01:11:12.704Z,95762.36
2019-05-25T01:17:05.891Z,95763.48
2019-05-25T01:19:48.751Z,95761.91
2019-05-25T01:22:38.486Z,95752.52
2019-05-25T01:25:28.179Z,95755.36
2019-05-25T01:28:10.656Z,95753.89
2019-05-25T01:31:00.477Z,95752.80
2019-05-25T01:33:50.246Z,95758.34
2019-05-25T01:36:40.173Z,95762.16
2019-05-25T01:39:29.998Z,95756.07
2019-05-25T01:45:28.554Z,95755.32
2019-05-25T01:48:11.557Z,95753.73
2019-05-25T01:51:01.428Z,95753.03
2019-05-25T01:53:51.206Z,95757.94
2019-05-25T01:56:40.977Z,95759.30
2019-05-25T02:02:23.917Z,95761.34
2019-05-25T02:05:14.075Z,95769.46
2019-05-25T02:08:03.906Z,95767.43
2019-05-25T02:11:07.008Z,95765.98
2019-05-25T02:13:49.219Z,95774.98
2019-05-25T02:16:38.915Z,95778.30
2019-05-25T02:19:21.283Z,95776.08
2019-05-25T02:22:10.998Z,95765.67
2019-05-25T02:24:52.921Z,95777.17
2019-05-25T02:27:42.720Z,95751.44
2019-05-25T02:30:26.337Z,95777.02
2019-05-25T02:33:16.054Z,95774.12
2019-05-25T02:35:58.758Z,95774.12
2019-05-25T02:38:48.473Z,95774.95
2019-05-25T02:41:30.549Z,95776.86
2019-05-25T02:47:21.394Z,95779.98
2019-05-25T02:50:11.107Z,95780.50
2019-05-25T02:52:54.456Z,95786.21
2019-05-25T02:55:44.196Z,95763.33
2019-05-25T03:04:21.468Z,95775.99
2019-05-25T03:07:11.280Z,95779.37
2019-05-25T03:09:53.695Z,95774.87
2019-05-25T03:18:52.578Z,95757.31
2019-05-25T03:21:35.238Z,95780.58
2019-05-25T03:24:25.272Z,95778.98
2019-05-25T03:30:37.315Z,95777.76
2019-05-25T03:33:27.092Z,95783.50
2019-05-25T03:36:16.873Z,95774.44
2019-05-25T03:39:08.188Z,95784.05
2019-05-25T03:41:57.968Z,95791.02
2019-05-25T03:44:47.698Z,95791.64
2019-05-25T03:50:40.693Z,95797.00
2019-05-25T03:53:22.975Z,95793.17
2019-05-25T03:56:12.716Z,95795.52
2019-05-25T03:58:55.378Z,95797.12
2019-05-25T04:01:45.148Z,95792.30
2019-05-25T04:04:34.931Z,95793.48
2019-05-25T04:07:17.192Z,95797.82
2019-05-25T04:13:21.075Z,95790.94
2019-05-25T04:16:10.874Z,95804.54
2019-05-25T04:19:00.648Z,95810.69
2019-05-25T04:22:09.539Z,95808.26
2019-05-25T04:24:59.280Z,95814.07
2019-05-25T04:27:48.980Z,95817.16
2019-05-25T04:30:31.473Z,95811.15
2019-05-25T04:33:21.190Z,95817.65
2019-05-25T04:36:10.953Z,95825.63
2019-05-25T04:39:00.740Z,95826.77
2019-05-25T04:41:50.515Z,95823.91
2019-05-25T04:44:40.245Z,95826.17
2019-05-25T04:47:30.105Z,95824.77
2019-05-25T04:50:19.907Z,95829.50
2019-05-25T04:53:09.692Z,95830.13
2019-05-25T05:01:55.989Z,95837.48
2019-05-25T05:04:45.779Z,95836.41
2019-05-25T05:07:35.486Z,95827.89
2019-05-25T05:10:17.827Z,95838.99
2019-05-25T05:12:48.490Z,95844.34
2019-05-25T05:18:27.798Z,95844.30
2019-05-25T05:20:58.500Z,95847.16
2019-05-25T05:23:48.369Z,95848.58
2019-05-25T05:26:30.822Z,95850.55
2019-05-25T05:29:39.662Z,95859.55
2019-05-25T05:32:29.462Z,95863.91
2019-05-25T05:35:19.270Z,95862.98
2019-05-25T05:38:09.047Z,95852.77
2019-05-25T05:41:18.183Z,95867.70
2019-05-25T05:44:08.044Z,95868.55
2019-05-25T05:50:12.430Z,95854.02
2019-05-25T05:52:43.064Z,95880.48
2019-05-25T05:55:33.176Z,95877.95
2019-05-25T05:58:15.296Z,95886.16
2019-05-25T06:00:58.498Z,95885.87
2019-05-25T06:03:48.331Z,95882.32
2019-05-25T06:06:38.239Z,95889.78
2019-05-25T06:09:28.063Z,95895.48
2019-05-25T06:12:36.910Z,95895.30
2019-05-25T06:15:26.696Z,95891.42
2019-05-25T06:18:16.760Z,95897.30
2019-05-25T06:21:06.706Z,95886.28
2019-05-25T06:23:56.482Z,95906.42
2019-05-25T06:26:46.235Z,95907.23
2019-05-25T06:29:35.996Z,95912.53
2019-05-25T06:32:27.257Z,95913.10
2019-05-25T06:38:00.214Z,95913.50
2019-05-25T06:53:18.988Z,95902.97
2019-05-25T06:56:03.290Z,95898.95
2019-05-25T06:58:45.740Z,95896.97
2019-05-25T07:01:35.548Z,95894.28
2019-05-25T07:04:25.906Z,95875.95
2019-05-25T07:07:16.282Z,95884.83
2019-05-25T07:10:06.572Z,95903.88
2019-05-25T07:12:56.328Z,95906.92
2019-05-25T07:15:46.714Z,95897.04
2019-05-25T07:18:29.695Z,95885.30
2019-05-25T07:21:00.420Z,95905.20
2019-05-25T07:23:50.153Z,95902.44
2019-05-25T07:26:33.081Z,95909.85
2019-05-25T07:29:41.960Z,95891.97
2019-05-25T07:32:31.751Z,95916.11
2019-05-25T07:35:21.563Z,95911.48
2019-05-25T07:38:11.329Z,95917.82
2019-05-25T07:41:02.075Z,95917.96
2019-05-25T07:44:04.849Z,95921.73
2019-05-25T07:46:47.696Z,95920.64
2019-05-25T07:49:37.428Z,95917.68
2019-05-25T07:52:20.202Z,95908.95
2019-05-25T07:55:10.479Z,95919.66
2019-05-25T07:57:53.599Z,95917.59
2019-05-25T08:00:43.921Z,95921.71
2019-05-25T08:03:26.580Z,95918.94
2019-05-25T08:06:16.873Z,95920.05
2019-05-25T08:09:00.098Z,95922.20
2019-05-25T08:11:50.414Z,95905.97
2019-05-25T08:14:32.931Z,95917.53
2019-05-25T08:17:23.590Z,95924.45
2019-05-25T08:20:06.707Z,95907.33
2019-05-25T08:22:57.060Z,95896.53
2019-05-25T08:25:47.613Z,95913.48
2019-05-25T08:28:37.971Z,95926.00
2019-05-25T08:31:28.364Z,95920.50
2019-05-25T08:34:18.777Z,95928.02
2019-05-25T08:37:28.444Z,95914.50
2019-05-25T08:40:12.053Z,95933.09
2019-05-25T08:42:43.293Z,95909.55
2019-05-25T08:45:33.702Z,95926.10
2019-05-25T08:48:17.906Z,95928.59
2019-05-25T08:51:01.158Z,95920.66
2019-05-25T08:53:51.661Z,95927.64
2019-05-25T08:56:41.965Z,95923.84
2019-05-25T08:59:25.698Z,95923.36
2019-05-25T09:02:16.164Z,95921.23
2019-05-25T09:05:06.762Z,95923.63
2019-05-25T09:07:57.204Z,95907.19
2019-05-25T09:10:47.640Z,95907.42
2019-05-25T09:13:38.010Z,95930.22
2019-05-25T09:16:28.398Z,95908.14
2019-05-25T09:19:18.729Z,95927.05
2019-05-25T09:22:03.431Z,95928.09
2019-05-25T09:24:53.650Z,95932.70
2019-05-25T09:27:36.288Z,95924.75
2019-05-25T09:30:26.662Z,95934.88
2019-05-25T09:33:36.121Z,95924.03
2019-05-25T09:36:26.476Z,95922.91
2019-05-25T09:41:54.699Z,95923.61
2019-05-25T09:44:45.000Z,95925.54
2019-05-25T09:47:28.582Z,95926.71
2019-05-25T09:50:18.984Z,95922.47
2019-05-25T09:53:01.610Z,95926.73
2019-05-25T09:55:52.075Z,95926.99
2019-05-25T09:58:34.964Z,95924.22
2019-05-25T10:01:25.574Z,95923.85
2019-05-25T10:04:15.888Z,95925.16
2019-05-25T10:07:06.309Z,95920.78
2019-05-25T10:09:56.686Z,95925.88
2019-05-25T10:12:47.090Z,95930.02
2019-05-25T10:15:50.618Z,95922.72
2019-05-25T10:18:33.219Z,95922.58
2019-05-25T10:21:23.540Z,95922.39
2019-05-25T10:24:06.212Z,95918.50
2019-05-25T10:26:56.546Z,95924.31
2019-05-25T10:29:46.847Z,95921.77
2019-05-25T10:32:31.733Z,95918.00
2019-05-25T10:35:41.213Z,95907.11
2019-05-25T10:38:31.668Z,95914.89
2019-05-25T10:41:22.091Z,95917.13
2019-05-25T10:44:11.915Z,95911.73
2019-05-25T10:47:01.706Z,95914.09
2019-05-25T10:49:51.494Z,95906.20
2019-05-25T10:52:41.984Z,95905.95
2019-05-25T10:58:29.977Z,95915.68
2019-05-25T11:01:19.736Z,95897.97
2019-05-25T11:04:02.336Z,95922.70
2019-05-25T11:06:52.079Z,95916.37
2019-05-25T11:09:36.225Z,95899.95
2019-05-25T11:12:26.216Z,95921.30
2019-05-25T11:15:14.454Z,95922.46
2019-05-25T11:18:04.927Z,95922.27
2019-05-25T11:20:47.279Z,95891.26
2019-05-25T11:23:37.184Z,95917.22
2019-05-25T11:26:19.333Z,95924.06
2019-05-25T11:29:09.122Z,95906.91
2019-05-25T11:31:56.650Z,95921.59
2019-05-25T11:34:43.139Z,95924.72
2019-05-25T11:37:25.589Z,95923.66
2019-05-25T11:40:16.361Z,95918.78
2019-05-25T11:42:47.130Z,95923.44
2019-05-25T11:45:36.846Z,95919.09
2019-05-25T11:51:22.278Z,95921.33
2019-05-25T11:54:12.569Z,95895.52
2019-05-25T11:56:54.867Z,95912.19
2019-05-25T11:59:38.100Z,95905.95
2019-05-25T12:02:21.874Z,95901.23
2019-05-25T12:05:32.831Z,95895.88
2019-05-25T12:08:23.223Z,95900.66
2019-05-25T12:11:32.727Z,95892.41
2019-05-25T12:14:23.117Z,95894.85
2019-05-25T12:17:13.484Z,95869.16
2019-05-25T12:20:04.006Z,95894.31
2019-05-25T12:23:13.571Z,95887.37
2019-05-25T12:25:56.555Z,95886.32
2019-05-25T12:28:46.908Z,95888.20
2019-05-25T12:31:37.444Z,95886.72
2019-05-25T12:34:20.166Z,95889.81
2019-05-25T12:37:22.622Z,95891.79
2019-05-25T12:40:05.626Z,95888.75
2019-05-25T12:42:55.946Z,95879.80
2019-05-25T12:45:42.003Z,95880.13
2019-05-25T12:48:30.721Z,95879.95
2019-05-25T12:51:13.556Z,95877.09
2019-05-25T12:54:03.846Z,95873.34
2019-05-25T12:56:46.832Z,95876.16
2019-05-25T12:59:37.165Z,95850.78
2019-05-25T13:02:23.716Z,95876.66
2019-05-25T13:05:34.907Z,95876.42
2019-05-25T13:08:19.014Z,95886.42
2019-05-25T13:11:09.673Z,95891.75
2019-05-25T13:13:53.224Z,95903.26
2019-05-25T13:16:42.978Z,95901.32
2019-05-25T13:19:25.280Z,95904.70
2019-05-25T13:22:14.991Z,95906.67
2019-05-25T13:24:57.315Z,95905.02
2019-05-25T13:27:47.109Z,95903.64
2019-05-25T13:30:29.468Z,95881.70
2019-05-25T13:33:19.780Z,95902.72
2019-05-25T13:36:04.079Z,95909.61
2019-05-25T13:38:53.803Z,95908.02
2019-05-25T13:41:44.106Z,95908.23
2019-05-25T13:44:26.588Z,95908.59
2019-05-25T13:47:16.987Z,95899.63
2019-05-25T13:50:19.466Z,95908.80
2019-05-25T13:53:02.124Z,95919.70
2019-05-25T13:56:10.983Z,95934.05
2019-05-25T14:01:42.040Z,95950.03
2019-05-25T14:04:32.345Z,95955.37
2019-05-25T14:07:15.140Z,95952.20
2019-05-25T14:10:05.823Z,95959.64
2019-05-25T14:13:15.183Z,95939.05
2019-05-25T14:16:06.789Z,95961.25
2019-05-25T14:18:48.745Z,95961.98
2019-05-25T14:21:39.199Z,95964.53
2019-05-25T14:24:29.481Z,95969.25
2019-05-25T14:27:19.790Z,95954.58
2019-05-25T14:30:02.054Z,95980.28
2019-05-25T14:32:51.759Z,95993.41
2019-05-25T14:35:41.589Z,95995.58
2019-05-25T14:38:25.379Z,95993.09
2019-05-25T14:41:15.143Z,95997.81
2019-05-25T14:44:04.991Z,95998.06
2019-05-25T14:46:48.463Z,96002.45
2019-05-25T14:49:38.261Z,96001.78
2019-05-25T14:52:28.079Z,95969.89
2019-05-25T14:55:18.083Z,95994.75
2019-05-25T14:58:07.801Z,95991.59
2019-05-25T15:00:57.537Z,95986.48
2019-05-25T15:03:47.305Z,95977.50
2019-05-25T15:06:29.305Z,95977.66
2019-05-25T15:09:19.043Z,95972.08
2019-05-25T15:12:01.600Z,95978.80
2019-05-25T15:14:51.420Z,95977.08
2019-05-25T15:17:43.166Z,95976.11
2019-05-25T15:20:26.481Z,95975.90
2019-05-25T15:23:16.282Z,95961.91
2019-05-25T15:26:06.111Z,95971.78
2019-05-25T15:28:56.871Z,95965.09
2019-05-25T15:31:46.743Z,95958.83
2019-05-25T15:34:36.498Z,95964.95
2019-05-25T15:37:26.282Z,95965.64
2019-05-25T15:40:16.133Z,95954.11
2019-05-25T15:43:06.108Z,95961.05
2019-05-25T15:46:15.005Z,95960.15
2019-05-25T15:48:57.769Z,95946.16
2019-05-25T15:51:47.544Z,95945.28
2019-05-25T15:54:29.810Z,95940.91
2019-05-25T15:57:19.985Z,95946.28
2019-05-25T16:00:02.924Z,95950.39
2019-05-25T16:05:54.928Z,95957.09
2019-05-25T16:11:32.742Z,95958.98
2019-05-25T16:14:23.135Z,95955.55
2019-05-25T16:17:12.956Z,95958.50
2019-05-25T16:20:03.362Z,95962.50
2019-05-25T16:22:53.756Z,95963.10
2019-05-25T16:25:44.088Z,95941.61
2019-05-25T16:28:33.924Z,95964.70
2019-05-25T16:31:23.638Z,95958.27
2019-05-25T16:34:13.933Z,95975.28
2019-05-25T16:37:04.416Z,95974.70
2019-05-25T16:39:47.663Z,95973.33
2019-05-25T16:42:37.394Z,95976.65
2019-05-25T16:45:21.162Z,95975.20
2019-05-25T16:48:11.478Z,95977.50
2019-05-25T16:50:54.913Z,95972.23
2019-05-25T16:53:45.187Z,95973.20
2019-05-25T16:56:35.486Z,95963.88
2019-05-25T16:59:18.512Z,95983.19
2019-05-25T17:02:08.806Z,95956.70
2019-05-25T17:04:53.368Z,95968.14
2019-05-25T17:07:36.136Z,95991.48
2019-05-25T17:10:25.889Z,95986.28
2019-05-25T17:13:09.456Z,95990.59
2019-05-25T17:15:59.250Z,95985.80
2019-05-25T17:18:49.790Z,95991.94
2019-05-25T17:21:40.158Z,95973.81
2019-05-25T17:24:29.986Z,95958.90
2019-05-25T17:27:20.402Z,95983.07
2019-05-25T17:30:10.677Z,95991.08
2019-05-25T17:33:00.428Z,95962.20
2019-05-25T17:35:50.149Z,95993.77
2019-05-25T17:38:39.874Z,95990.94
2019-05-25T17:41:22.244Z,95990.00
2019-05-25T17:44:11.969Z,95990.52
2019-05-25T17:46:54.491Z,95988.96
2019-05-25T17:49:44.220Z,95994.28
2019-05-25T17:52:26.517Z,96013.91
2019-05-25T17:55:16.219Z,96023.56
2019-05-25T17:57:46.909Z,96019.16
2019-05-25T18:00:55.672Z,96030.73
2019-05-25T18:03:38.081Z,96030.91
2019-05-25T18:06:27.798Z,96020.20
2019-05-25T18:09:09.981Z,96050.61
2019-05-25T18:11:59.734Z,96047.84
2019-05-25T18:14:42.930Z,96052.15
2019-05-25T18:20:37.851Z,96058.22
2019-05-25T18:23:19.903Z,96062.44
2019-05-25T18:26:09.654Z,96061.75
2019-05-25T18:28:51.723Z,96063.13
2019-05-25T18:31:41.507Z,96074.38
2019-05-25T18:34:31.254Z,96075.44
2019-05-25T18:37:20.991Z,96073.63
2019-05-25T18:40:03.439Z,96079.62
2019-05-25T18:42:53.330Z,96073.78
2019-05-25T18:45:43.052Z,96080.84
2019-05-25T18:48:25.634Z,96075.59
2019-05-25T18:51:15.727Z,96078.22
2019-05-25T18:54:05.740Z,96080.25
2019-05-25T18:56:55.579Z,96082.97
2019-05-25T18:59:45.436Z,96077.69
2019-05-25T19:02:35.232Z,96082.05
2019-05-25T19:05:25.103Z,96088.96
2019-05-25T19:08:15.022Z,96088.46
2019-05-25T19:11:04.841Z,96089.34
2019-05-25T19:13:55.150Z,96096.23
2019-05-25T19:16:44.998Z,96094.81
2019-05-25T19:19:34.820Z,96089.13
2019-05-25T19:22:24.587Z,96089.02
2019-05-25T19:25:14.731Z,96081.40
2019-05-25T19:30:48.151Z,96103.11
2019-05-25T19:33:37.908Z,96101.44
2019-05-25T19:36:20.544Z,96103.50
2019-05-25T19:39:10.292Z,96112.43
2019-05-25T19:41:52.885Z,96112.03
2019-05-25T19:44:42.630Z,96110.28
2019-05-25T19:47:25.300Z,96085.57
2019-05-25T19:50:15.316Z,96116.69
2019-05-25T19:52:58.909Z,96117.27
2019-05-25T19:55:29.550Z,96111.81
2019-05-25T19:58:19.251Z,96129.73
2019-05-25T20:01:03.392Z,96132.48
2019-05-25T20:03:57.197Z,96133.34
2019-05-25T20:06:37.284Z,96130.29
2019-05-25T20:09:27.144Z,96133.77
2019-05-25T20:12:16.923Z,96131.31
2019-05-25T20:18:03.792Z,96120.29
2019-05-25T20:20:53.553Z,96132.66
2019-05-25T20:26:39.033Z,96137.23
2019-05-25T20:29:09.904Z,96131.22
2019-05-25T20:31:40.541Z,96128.00
2019-05-25T20:34:30.288Z,96124.64
2019-05-25T20:37:14.649Z,96125.39
2019-05-25T20:39:58.810Z,96125.86
2019-05-25T20:54:42.864Z,96101.56
2019-05-25T20:57:32.808Z,96108.66
2019-05-25T21:00:24.272Z,96117.67
2019-05-25T21:03:07.610Z,96115.82
2019-05-25T21:05:57.417Z,96115.63
2019-05-25T21:08:47.241Z,96124.41
2019-05-25T21:11:37.447Z,96120.48
2019-05-25T21:14:27.174Z,96113.73
2019-05-25T21:17:16.978Z,96111.27
2019-05-25T21:20:06.821Z,96105.66
2019-05-25T21:23:09.361Z,96102.98
2019-05-25T21:25:51.746Z,96114.18
2019-05-25T21:28:41.473Z,96107.88
2019-05-25T21:31:24.084Z,96109.35
2019-05-25T21:34:14.293Z,96109.59
2019-05-25T21:36:56.662Z,96116.98
2019-05-25T21:39:46.353Z,96120.91
2019-05-25T21:42:29.013Z,96107.59
2019-05-25T21:45:18.859Z,96111.21
2019-05-25T21:47:49.672Z,96118.91
2019-05-25T21:50:58.510Z,96127.48
2019-05-25T21:53:41.501Z,96130.42
2019-05-25T21:56:31.205Z,96115.38
2019-05-25T21:59:13.529Z,96137.45
2019-05-25T22:02:03.303Z,96124.48
2019-05-25T22:04:48.669Z,96134.34
2019-05-25T22:10:39.485Z,96126.20
2019-05-25T22:13:29.205Z,96138.80
2019-05-25T22:16:11.814Z,96145.20
2019-05-25T22:19:01.550Z,96128.97
2019-05-25T22:21:46.045Z,96143.11
2019-05-25T22:24:35.581Z,96142.83
2019-05-25T22:27:18.361Z,96142.28
2019-05-25T22:30:08.137Z,96150.98
2019-05-25T22:32:50.128Z,96149.98
2019-05-25T22:35:39.865Z,96128.20
2019-05-25T22:41:13.815Z,96143.64
2019-05-25T22:43:44.596Z,96144.68
2019-05-25T22:46:34.299Z,96141.48
2019-05-25T22:49:18.331Z,96106.43
2019-05-25T22:52:02.210Z,96135.88
2019-05-25T22:54:45.131Z,96133.14
2019-05-25T22:57:34.874Z,96120.30
2019-05-25T23:00:19.498Z,96132.69
2019-05-25T23:03:03.811Z,96128.39
2019-05-25T23:05:53.666Z,96127.83
2019-05-25T23:08:43.570Z,96126.41
2019-05-25T23:11:33.348Z,96122.33
2019-05-25T23:14:23.170Z,96128.11
2019-05-25T23:17:13.013Z,96106.23
2019-05-25T23:20:02.816Z,96126.80
2019-05-25T23:22:52.696Z,96124.75
2019-05-25T23:28:46.173Z,96135.88
2019-05-25T23:31:28.919Z,96127.59
2019-05-25T23:34:18.654Z,96132.80
2019-05-25T23:37:14.240Z,96117.52
2019-05-25T23:39:52.151Z,96139.97
2019-05-25T23:45:45.533Z,96131.28
2019-05-25T23:48:28.024Z,96128.49
2019-05-25T23:54:23.443Z,96132.92
2019-05-25T23:57:06.289Z,96135.20
2019-05-25T23:59:57.017Z,96120.97
